Time;durP1;ratioP1;P1;durP2;ratioP2;P2;SDS_P1;SDS_P2;PMS_P1;PMS_P2;Temp;Humidity;BMP_temperature;BMP_pressure;BME280_temperature;BME280_humidity;BME280_pressure;Samples;Min_cycle;Max_cycle;Signal;HPM_P1;HPM_P2
2022/05/04 00:01:09;;;;;;;5.15;3.20;;;9.20;97.30;;;;;;5044671;28;20059;-68
2022/05/04 00:03:39;;;;;;;7.57;3.20;;;9.10;97.40;;;;;;5049624;28;20056;-67
2022/05/04 00:06:05;;;;;;;7.53;3.50;;;9.20;97.40;;;;;;5049808;28;20120;-68
2022/05/04 00:08:31;;;;;;;5.35;3.25;;;9.20;97.40;;;;;;5054587;28;20085;-67
2022/05/04 00:10:57;;;;;;;7.30;3.35;;;9.10;97.40;;;;;;5052616;28;20029;-68
2022/05/04 00:13:23;;;;;;;5.43;3.30;;;9.10;97.40;;;;;;5054519;28;20029;-68
2022/05/04 00:15:48;;;;;;;6.07;3.30;;;9.10;97.50;;;;;;5033560;28;20029;-68
2022/05/04 00:18:14;;;;;;;7.50;3.83;;;9.10;97.40;;;;;;5052166;28;20025;-68
2022/05/04 00:20:39;;;;;;;7.72;3.58;;;9.10;97.50;;;;;;5036901;28;20052;-68
2022/05/04 00:23:05;;;;;;;5.53;3.30;;;9.10;97.40;;;;;;5052082;28;20418;-67
2022/05/04 00:25:31;;;;;;;5.95;3.30;;;9.10;97.50;;;;;;5051970;28;20025;-68
2022/05/04 00:27:58;;;;;;;5.72;3.10;;;9.10;97.50;;;;;;5050852;28;20020;-67
2022/05/04 00:30:24;;;;;;;5.10;3.22;;;9.10;97.60;;;;;;5050641;28;20082;-67
2022/05/04 00:32:50;;;;;;;6.88;3.63;;;9.10;97.60;;;;;;5054170;28;20426;-67
2022/05/04 00:35:15;;;;;;;6.75;3.33;;;9.10;97.50;;;;;;5051284;28;20028;-67
2022/05/04 00:37:41;;;;;;;6.45;3.25;;;9.10;97.60;;;;;;5054239;28;20040;-67
2022/05/04 00:40:07;;;;;;;5.35;3.50;;;9.20;97.60;;;;;;5036256;28;20414;-68
2022/05/04 00:42:33;;;;;;;6.53;3.47;;;9.20;97.50;;;;;;5052098;28;20029;-67
2022/05/04 00:44:59;;;;;;;4.82;3.08;;;9.20;97.50;;;;;;5052951;28;20044;-68
2022/05/04 00:47:25;;;;;;;4.88;3.17;;;9.20;97.40;;;;;;5037097;28;20033;-68
2022/05/04 00:49:52;;;;;;;5.45;3.33;;;9.20;97.40;;;;;;5036586;28;20027;-68
2022/05/04 00:52:18;;;;;;;5.53;3.30;;;9.10;97.50;;;;;;5054159;28;20025;-68
2022/05/04 00:54:46;;;;;;;6.80;3.17;;;9.10;97.50;;;;;;5052118;28;20108;-68
2022/05/04 00:57:14;;;;;;;5.95;3.40;;;9.10;97.50;;;;;;5051683;28;20542;-68
2022/05/04 00:59:41;;;;;;;5.35;3.38;;;9.10;97.50;;;;;;5054341;28;20070;-67
2022/05/04 01:02:07;;;;;;;6.80;3.47;;;9.10;97.50;;;;;;5052318;28;20029;-68
2022/05/04 01:04:32;;;;;;;6.35;3.38;;;8.90;97.60;;;;;;5052404;28;20075;-68
2022/05/04 01:06:58;;;;;;;7.78;3.58;;;8.50;97.40;;;;;;5052015;28;20071;-68
2022/05/04 01:09:24;;;;;;;7.05;3.42;;;8.40;97.30;;;;;;5052673;28;20112;-67
2022/05/04 01:11:50;;;;;;;7.05;3.50;;;8.30;97.10;;;;;;5053598;28;20028;-69
2022/05/04 01:14:16;;;;;;;5.93;3.80;;;8.30;97.30;;;;;;5052870;28;20025;-67
2022/05/04 01:16:48;;;;;;;6.72;3.72;;;8.40;97.60;;;;;;5055772;28;20023;-68
2022/05/04 01:19:14;;;;;;;6.18;3.40;;;8.50;97.60;;;;;;5052563;28;20036;-68
2022/05/04 01:21:40;;;;;;;5.85;3.40;;;8.50;97.50;;;;;;5052073;28;20017;-68
2022/05/04 01:24:07;;;;;;;5.30;3.63;;;8.50;97.60;;;;;;5051813;28;20036;-68
2022/05/04 01:26:33;;;;;;;9.23;3.40;;;8.50;97.60;;;;;;5043800;28;20029;-67
2022/05/04 01:28:58;;;;;;;7.05;3.42;;;8.50;97.50;;;;;;5052963;28;20032;-68
2022/05/04 01:31:24;;;;;;;6.50;3.72;;;8.60;97.50;;;;;;5051420;28;20033;-67
2022/05/04 01:33:50;;;;;;;5.05;3.17;;;8.70;97.70;;;;;;5051896;28;20144;-68
2022/05/04 01:36:15;;;;;;;7.55;3.35;;;8.80;97.80;;;;;;5048760;28;20329;-67
2022/05/04 01:38:41;;;;;;;5.70;3.20;;;8.80;97.70;;;;;;5054401;28;20025;-67
2022/05/04 01:42:02;;;;;;;7.20;3.20;;;8.90;97.80;;;;;;5053062;28;20441;-69
2022/05/04 01:43:52;;;;;;;6.95;3.70;;;9.00;97.80;;;;;;5064747;28;20418;-68
2022/05/04 01:46:19;;;;;;;7.78;3.50;;;9.00;97.70;;;;;;5050278;28;20078;-68
2022/05/04 01:48:45;;;;;;;8.00;3.20;;;9.00;97.70;;;;;;5052518;28;20025;-68
2022/05/04 01:51:10;;;;;;;7.10;3.42;;;9.00;97.80;;;;;;5051938;28;20033;-68
2022/05/04 01:53:36;;;;;;;5.30;3.25;;;9.10;97.90;;;;;;5054488;28;20116;-68
2022/05/04 01:56:07;;;;;;;5.28;3.08;;;9.20;97.80;;;;;;5038429;28;20027;-68
2022/05/04 01:58:32;;;;;;;5.72;3.28;;;9.20;97.70;;;;;;5038348;28;20049;-68
2022/05/04 02:00:58;;;;;;;7.07;3.78;;;9.20;97.70;;;;;;5052242;28;20372;-68
2022/05/04 02:03:25;;;;;;;5.43;3.30;;;9.20;97.80;;;;;;5035194;28;20029;-68
2022/05/04 02:05:51;;;;;;;4.97;2.92;;;9.30;97.70;;;;;;5053434;28;20028;-68
2022/05/04 02:08:17;;;;;;;5.65;3.00;;;9.30;97.70;;;;;;5043369;28;20045;-68
2022/05/04 02:10:43;;;;;;;5.18;3.20;;;9.30;97.70;;;;;;5053198;28;20104;-68
2022/05/04 02:13:08;;;;;;;7.50;3.65;;;9.30;97.70;;;;;;5057363;28;20120;-68
2022/05/04 02:15:34;;;;;;;5.72;3.28;;;9.30;97.80;;;;;;5054281;28;20811;-67
2022/05/04 02:17:59;;;;;;;8.32;3.45;;;9.40;97.60;;;;;;5052665;28;20027;-68
2022/05/04 02:20:25;;;;;;;5.75;3.25;;;9.40;97.50;;;;;;5054669;28;20063;-68
2022/05/04 02:22:51;;;;;;;5.25;3.40;;;9.50;97.50;;;;;;5054161;28;20028;-67
2022/05/04 02:25:17;;;;;;;7.13;2.88;;;9.50;97.50;;;;;;5055612;28;20036;-68
2022/05/04 02:27:43;;;;;;;5.82;3.22;;;9.50;97.50;;;;;;5056009;28;20029;-68
2022/05/04 02:30:09;;;;;;;5.43;2.90;;;9.40;97.40;;;;;;5055740;28;20562;-67
2022/05/04 02:32:35;;;;;;;4.43;3.03;;;9.30;97.50;;;;;;5055595;28;20131;-68
2022/05/04 02:37:57;;;;;;;;;;;9.10;97.60;;;;;;5054175;28;20103;-67
2022/05/04 02:40:26;;;;;;;5.40;3.13;;;9.00;97.60;;;;;;5047278;28;19915;-67
2022/05/04 02:42:52;;;;;;;6.80;3.35;;;9.10;97.80;;;;;;5055920;28;20105;-68
2022/05/04 02:45:17;;;;;;;6.90;3.38;;;9.10;97.90;;;;;;5051750;28;20736;-67
2022/05/04 02:47:43;;;;;;;6.70;3.22;;;9.10;97.70;;;;;;5052230;28;20029;-67
2022/05/04 02:50:09;;;;;;;5.45;3.20;;;9.10;97.70;;;;;;5058046;28;20048;-68
2022/05/04 02:52:35;;;;;;;4.45;2.92;;;9.10;97.90;;;;;;5056145;28;20031;-67
2022/05/04 02:55:01;;;;;;;5.60;3.45;;;9.10;97.80;;;;;;5040832;28;20376;-68
2022/05/04 02:57:27;;;;;;;4.85;3.20;;;9.10;97.70;;;;;;5054302;28;20108;-68
2022/05/04 02:59:52;;;;;;;5.95;3.35;;;9.00;97.70;;;;;;5054546;28;20044;-67
2022/05/04 03:02:27;;;;;;;5.65;3.28;;;8.80;97.60;;;;;;5057532;28;20029;-67
2022/05/04 03:04:57;;;;;;;5.13;3.58;;;8.70;97.50;;;;;;5054023;28;20036;-67
2022/05/04 03:07:23;;;;;;;5.68;3.80;;;8.60;97.60;;;;;;5054119;28;20039;-67
2022/05/04 03:09:49;;;;;;;6.22;4.47;;;8.60;97.40;;;;;;5053806;28;20422;-67
2022/05/04 03:12:15;;;;;;;8.38;4.00;;;8.60;97.30;;;;;;5054991;28;20036;-65
2022/05/04 03:14:40;;;;;;;5.93;3.88;;;8.50;97.40;;;;;;5055231;28;20020;-68
2022/05/04 03:17:06;;;;;;;7.30;3.63;;;8.50;97.20;;;;;;5051870;28;20029;-68
2022/05/04 03:19:31;;;;;;;7.43;3.60;;;8.50;97.30;;;;;;5055827;28;20025;-66
2022/05/04 03:21:57;;;;;;;9.02;4.60;;;8.50;97.30;;;;;;5054812;28;20041;-67
2022/05/04 03:24:23;;;;;;;7.13;4.18;;;8.50;97.60;;;;;;5055235;28;20021;-67
2022/05/04 03:26:48;;;;;;;9.07;4.38;;;8.50;97.40;;;;;;5054657;28;20025;-68
2022/05/04 03:29:14;;;;;;;6.20;3.60;;;8.60;97.50;;;;;;5061325;28;20070;-67
2022/05/04 03:31:40;;;;;;;6.70;4.57;;;8.50;97.50;;;;;;5054421;28;21887;-69
2022/05/04 03:34:06;;;;;;;5.68;3.72;;;8.40;97.30;;;;;;5050618;28;20021;-67
2022/05/04 03:36:32;;;;;;;5.30;3.53;;;8.40;97.30;;;;;;5055616;28;20107;-68
2022/05/04 03:38:59;;;;;;;6.38;4.40;;;8.30;97.20;;;;;;5037994;28;20437;-67
2022/05/04 03:41:25;;;;;;;6.55;2.95;;;8.30;97.10;;;;;;5050879;28;20024;-67
2022/05/04 03:43:51;;;;;;;5.32;3.50;;;8.30;97.20;;;;;;5055930;28;20027;-67
2022/05/04 03:46:19;;;;;;;4.68;3.20;;;8.20;97.40;;;;;;5052699;28;20108;-67
2022/05/04 03:48:46;;;;;;;5.20;3.50;;;8.30;97.40;;;;;;5053596;28;20102;-68
2022/05/04 03:51:13;;;;;;;6.90;3.70;;;8.30;97.50;;;;;;5052550;28;20438;-66
2022/05/04 03:53:39;;;;;;;6.13;3.50;;;8.40;97.60;;;;;;5053661;28;20032;-67
2022/05/04 03:56:05;;;;;;;5.85;3.03;;;8.50;97.70;;;;;;5054560;28;20032;-67
2022/05/04 03:58:32;;;;;;;6.32;3.47;;;8.50;97.70;;;;;;5054677;28;20031;-67
2022/05/04 04:00:57;;;;;;;7.95;3.92;;;8.50;97.70;;;;;;5050682;28;20055;-67
2022/05/04 04:03:23;;;;;;;8.52;3.72;;;8.50;97.50;;;;;;5048512;28;20020;-67
2022/05/04 04:05:49;;;;;;;8.85;3.75;;;8.50;97.60;;;;;;5056544;28;20029;-67
2022/05/04 04:08:14;;;;;;;7.30;3.60;;;8.60;97.50;;;;;;5055136;28;20094;-68
2022/05/04 04:10:40;;;;;;;8.60;3.53;;;8.60;97.60;;;;;;5034926;28;20368;-67
2022/05/04 04:13:08;;;;;;;6.60;3.20;;;8.60;97.70;;;;;;5052204;28;20425;-67
2022/05/04 04:15:34;;;;;;;5.97;3.53;;;8.60;97.70;;;;;;5053928;28;20095;-67
2022/05/04 04:18:00;;;;;;;5.65;3.65;;;8.60;97.90;;;;;;5052486;28;20341;-67
2022/05/04 04:23:10;;;;;;;4.93;3.13;;;8.70;98.00;;;;;;5059213;28;20123;-66
2022/05/04 04:25:36;;;;;;;5.93;3.50;;;8.80;98.00;;;;;;5055459;28;20111;-66
2022/05/04 04:28:02;;;;;;;7.13;3.65;;;8.90;98.00;;;;;;5057636;28;20029;-65
2022/05/04 04:30:27;;;;;;;6.03;3.53;;;9.00;98.00;;;;;;5055846;28;20079;-65
2022/05/04 04:32:53;;;;;;;5.13;3.35;;;9.00;98.00;;;;;;5049845;28;20727;-66
2022/05/04 04:35:18;;;;;;;6.80;3.83;;;9.00;98.00;;;;;;5052668;28;20028;-68
2022/05/04 04:37:44;;;;;;;5.53;3.53;;;9.10;98.00;;;;;;5051494;28;20409;-68
2022/05/04 04:40:12;;;;;;;5.45;3.45;;;9.10;98.00;;;;;;5058439;28;20032;-67
2022/05/04 04:42:38;;;;;;;8.68;3.50;;;9.20;98.00;;;;;;5047143;28;20026;-68
2022/05/04 04:45:04;;;;;;;4.57;3.15;;;9.20;98.00;;;;;;5035166;28;20479;-68
2022/05/04 04:47:30;;;;;;;4.90;3.05;;;9.30;98.00;;;;;;5065186;28;20105;-67
2022/05/04 04:49:57;;;;;;;6.50;3.10;;;9.40;98.00;;;;;;5052932;28;20107;-66
2022/05/04 04:52:23;;;;;;;4.50;3.00;;;9.50;98.00;;;;;;5056677;28;20075;-68
2022/05/04 04:54:49;;;;;;;6.30;3.17;;;9.60;97.90;;;;;;5056140;28;20406;-67
2022/05/04 04:57:15;;;;;;;8.65;3.75;;;9.70;97.80;;;;;;5032573;28;20032;-65
2022/05/04 04:59:42;;;;;;;6.97;3.38;;;9.80;97.50;;;;;;5052730;28;20049;-67
2022/05/04 05:02:08;;;;;;;5.32;3.10;;;9.80;97.30;;;;;;5047515;28;20413;-66
2022/05/04 05:04:34;;;;;;;6.47;3.05;;;9.90;97.40;;;;;;5054756;28;20115;-67
2022/05/04 05:06:59;;;;;;;5.35;2.90;;;10.00;97.30;;;;;;5049983;28;20317;-67
2022/05/04 05:09:25;;;;;;;5.20;3.08;;;10.10;97.30;;;;;;5047626;28;20025;-68
2022/05/04 05:11:50;;;;;;;5.63;3.13;;;10.10;96.80;;;;;;5054304;28;20322;-67
2022/05/04 05:17:01;;;;;;;5.07;2.83;;;10.40;96.10;;;;;;5054562;28;20432;-67
2022/05/04 05:19:26;;;;;;;4.97;2.88;;;10.60;95.80;;;;;;5052863;28;20021;-67
2022/05/04 05:21:53;;;;;;;5.45;3.00;;;10.90;94.90;;;;;;5054689;28;20086;-67
2022/05/04 05:24:19;;;;;;;6.22;2.63;;;11.10;94.60;;;;;;5054539;28;20029;-67
2022/05/04 05:26:45;;;;;;;4.60;3.00;;;11.30;94.50;;;;;;5055441;28;20032;-67
2022/05/04 05:29:10;;;;;;;5.18;3.00;;;11.60;94.20;;;;;;5055532;28;20025;-67
2022/05/04 05:31:36;;;;;;;5.65;2.70;;;11.60;94.30;;;;;;5058253;28;20025;-68
2022/05/04 05:34:02;;;;;;;5.65;3.10;;;11.60;94.80;;;;;;5056568;28;20539;-68
2022/05/04 05:36:27;;;;;;;6.32;2.90;;;11.70;95.00;;;;;;5058859;28;20032;-67
2022/05/04 05:38:53;;;;;;;4.72;2.60;;;11.70;94.80;;;;;;5059411;28;20294;-67
2022/05/04 05:41:23;;;;;;;5.03;2.78;;;11.70;94.60;;;;;;5056919;28;20349;-67
2022/05/04 05:43:50;;;;;;;5.70;2.53;;;11.60;94.40;;;;;;5041458;28;20178;-67
2022/05/04 05:46:16;;;;;;;4.50;2.45;;;11.70;94.60;;;;;;5057269;28;20111;-67
2022/05/04 05:48:42;;;;;;;5.20;2.42;;;11.90;94.60;;;;;;5057785;28;20104;-67
2022/05/04 05:51:07;;;;;;;4.22;2.47;;;12.10;93.80;;;;;;5059205;28;20083;-67
2022/05/04 05:53:33;;;;;;;5.82;3.03;;;12.30;93.20;;;;;;5058022;28;20378;-67
2022/05/04 05:55:59;;;;;;;5.80;3.03;;;12.60;92.90;;;;;;5058090;28;20325;-68
2022/05/04 05:58:25;;;;;;;4.20;2.65;;;12.60;92.80;;;;;;5058889;28;20317;-67
2022/05/04 06:00:52;;;;;;;5.22;2.97;;;12.80;93.30;;;;;;5056507;28;20041;-68
2022/05/04 06:03:18;;;;;;;5.88;3.42;;;12.90;93.00;;;;;;5057271;28;20393;-68
2022/05/04 06:05:44;;;;;;;5.32;2.42;;;13.10;92.50;;;;;;5057204;28;20033;-67
2022/05/04 06:08:10;;;;;;;4.60;2.55;;;13.10;92.50;;;;;;5058703;28;20033;-68
2022/05/04 06:10:37;;;;;;;4.50;2.70;;;13.30;91.90;;;;;;5057701;28;20045;-67
2022/05/04 06:13:03;;;;;;;4.75;2.42;;;13.50;91.20;;;;;;5058906;28;20096;-68
2022/05/04 06:15:29;;;;;;;4.45;2.65;;;13.60;90.10;;;;;;5057494;28;20102;-67
2022/05/04 06:17:55;;;;;;;6.15;3.45;;;13.70;89.50;;;;;;5056024;28;20029;-68
2022/05/04 06:20:22;;;;;;;6.65;3.90;;;13.90;88.20;;;;;;5058651;28;20454;-67
2022/05/04 06:22:48;;;;;;;6.95;3.90;;;14.10;88.10;;;;;;5057527;28;20080;-67
2022/05/04 06:25:13;;;;;;;11.25;5.20;;;14.20;87.90;;;;;;5057735;28;20047;-68
2022/05/04 06:27:39;;;;;;;13.98;7.57;;;14.20;88.60;;;;;;5058585;28;20025;-68
2022/05/04 06:35:39;;;;;;;6.38;4.07;;;13.50;90.30;;;;;;5056768;28;20039;-67
2022/05/04 06:38:05;;;;;;;6.95;4.85;;;13.50;90.00;;;;;;5057382;28;20017;-67
2022/05/04 06:40:34;;;;;;;6.50;4.22;;;13.40;90.90;;;;;;5056294;28;20366;-67
2022/05/04 06:43:03;;;;;;;8.25;4.75;;;13.10;91.50;;;;;;5058214;28;20052;-68
2022/05/04 06:45:28;;;;;;;9.45;5.15;;;13.00;92.00;;;;;;5055901;28;20433;-67
2022/05/04 06:47:54;;;;;;;8.23;5.40;;;13.00;92.30;;;;;;5057512;28;20033;-68
2022/05/04 06:50:20;;;;;;;9.90;5.60;;;12.90;92.90;;;;;;5056053;28;20028;-67
2022/05/04 06:52:46;;;;;;;12.48;5.82;;;13.00;93.00;;;;;;5057152;28;20365;-68
2022/05/04 06:55:12;;;;;;;9.70;5.88;;;12.90;93.10;;;;;;5056545;28;20021;-68
2022/05/04 06:57:37;;;;;;;9.13;5.28;;;13.00;92.80;;;;;;5057787;28;20021;-68
2022/05/04 07:00:04;;;;;;;8.52;5.07;;;13.20;92.40;;;;;;5056593;28;20136;-68
2022/05/04 07:02:33;;;;;;;8.18;4.85;;;13.40;92.00;;;;;;5055822;28;20422;-68
2022/05/04 07:04:59;;;;;;;9.85;5.25;;;13.50;92.00;;;;;;5054600;28;20047;-68
2022/05/04 07:07:25;;;;;;;10.95;5.28;;;13.50;91.80;;;;;;5057717;28;20057;-67
2022/05/04 07:09:50;;;;;;;8.60;5.32;;;13.60;92.10;;;;;;5056759;28;20110;-68
2022/05/04 07:12:16;;;;;;;9.80;5.05;;;13.70;91.90;;;;;;5057920;28;20029;-68
2022/05/04 07:14:42;;;;;;;9.57;5.63;;;13.80;92.30;;;;;;5060526;28;20033;-67
2022/05/04 07:17:07;;;;;;;8.18;5.28;;;13.90;92.30;;;;;;5071135;28;20341;-68
2022/05/04 07:19:33;;;;;;;9.70;5.10;;;13.80;92.70;;;;;;5056035;28;20118;-66
2022/05/04 07:21:59;;;;;;;9.48;6.05;;;13.90;92.40;;;;;;5057391;28;20305;-67
2022/05/04 07:24:24;;;;;;;8.13;5.05;;;14.00;92.50;;;;;;5056406;28;20571;-67
2022/05/04 07:26:50;;;;;;;7.75;5.13;;;14.10;92.70;;;;;;5057351;28;20052;-66
2022/05/04 07:29:15;;;;;;;10.23;4.97;;;14.50;93.00;;;;;;5056365;28;20056;-68
2022/05/04 07:31:44;;;;;;;7.70;4.57;;;15.00;90.40;;;;;;5053622;28;20059;-68
2022/05/04 07:34:11;;;;;;;6.25;3.80;;;15.70;88.90;;;;;;5053218;28;20135;-69
2022/05/04 07:36:36;;;;;;;5.20;3.50;;;16.50;84.80;;;;;;5057061;28;20025;-68
2022/05/04 07:39:02;;;;;;;4.75;2.60;;;17.40;79.80;;;;;;5056130;28;20036;-68
2022/05/04 07:44:13;;;;;;;4.90;2.65;;;18.50;71.20;;;;;;5056940;28;20083;-68
2022/05/04 07:46:39;;;;;;;6.75;2.95;;;18.50;72.60;;;;;;5033753;28;20035;-68
2022/05/04 07:49:05;;;;;;;7.07;4.10;;;18.60;71.50;;;;;;5055918;28;20063;-68
2022/05/04 07:51:34;;;;;;;8.23;4.05;;;18.50;70.20;;;;;;5055660;28;20381;-68
2022/05/04 07:54:02;;;;;;;5.22;2.80;;;18.20;71.30;;;;;;5056773;28;20021;-69
2022/05/04 07:56:27;;;;;;;4.88;2.80;;;17.90;71.40;;;;;;5055263;28;20029;-68
2022/05/04 07:58:53;;;;;;;4.65;2.85;;;18.00;72.00;;;;;;5056758;28;20079;-68
2022/05/04 08:04:19;;;;;;;5.18;3.00;;;18.80;70.80;;;;;;5056334;28;20072;-69
2022/05/04 08:06:47;;;;;;;5.63;3.28;;;19.00;69.30;;;;;;5055600;28;20048;-68
2022/05/04 08:09:13;;;;;;;6.30;3.55;;;18.60;71.60;;;;;;5056791;28;20021;-68
2022/05/04 08:11:38;;;;;;;5.65;3.40;;;18.40;71.80;;;;;;5054781;28;20475;-68
2022/05/04 08:14:04;;;;;;;5.80;3.10;;;18.50;72.40;;;;;;5054403;28;20098;-68
2022/05/04 08:16:29;;;;;;;9.30;3.92;;;18.50;72.60;;;;;;5054986;28;20037;-68
2022/05/04 08:18:55;;;;;;;6.88;3.38;;;18.50;71.30;;;;;;5055690;28;20343;-68
2022/05/04 08:21:21;;;;;;;7.32;2.88;;;18.60;71.00;;;;;;5056517;28;20044;-68
2022/05/04 08:23:46;;;;;;;5.10;2.95;;;18.80;71.70;;;;;;5055335;28;20029;-68
2022/05/04 08:26:12;;;;;;;7.25;2.92;;;19.30;70.80;;;;;;5056453;28;20326;-68
2022/05/04 08:28:39;;;;;;;6.65;2.90;;;19.60;69.20;;;;;;5052963;28;20033;-68
2022/05/04 08:31:05;;;;;;;5.47;3.00;;;19.40;69.80;;;;;;5054235;28;20041;-68
2022/05/04 08:33:31;;;;;;;5.95;3.13;;;19.10;69.60;;;;;;5055375;28;20326;-68
2022/05/04 08:35:57;;;;;;;5.30;3.03;;;18.90;70.50;;;;;;5056254;28;20033;-68
2022/05/04 08:38:22;;;;;;;9.75;4.55;;;19.40;68.50;;;;;;5055142;28;20029;-67
2022/05/04 08:40:52;;;;;;;7.75;2.70;;;20.50;67.50;;;;;;5056399;28;20021;-68
2022/05/04 08:43:18;;;;;;;7.18;3.20;;;21.20;66.40;;;;;;5052633;28;20057;-68
2022/05/04 08:45:48;;;;;;;5.70;2.95;;;22.40;62.70;;;;;;5046130;28;20043;-68
2022/05/04 08:48:15;;;;;;;4.45;2.60;;;22.80;61.90;;;;;;5067523;28;20028;-68
2022/05/04 08:50:40;;;;;;;9.20;3.17;;;23.60;60.20;;;;;;5068774;28;20035;-68
2022/05/04 08:53:08;;;;;;;6.22;3.17;;;23.30;61.20;;;;;;5053841;28;20029;-68
2022/05/04 08:55:37;;;;;;;6.70;2.85;;;23.00;61.30;;;;;;5052457;28;20029;-68
2022/05/04 08:58:02;;;;;;;6.50;2.40;;;23.60;61.00;;;;;;5052565;28;20017;-68
2022/05/04 09:00:28;;;;;;;7.82;3.78;;;23.20;61.70;;;;;;5054619;28;20346;-68
2022/05/04 09:02:54;;;;;;;6.72;2.88;;;23.90;61.50;;;;;;5025354;28;20029;-68
2022/05/04 09:05:29;;;;;;;5.55;2.80;;;24.40;59.90;;;;;;5018606;28;20033;-68
2022/05/04 09:08:01;;;;;;;5.28;1.95;;;25.10;58.40;;;;;;5022721;28;20036;-68
2022/05/04 09:10:34;;;;;;;8.07;2.72;;;25.80;57.90;;;;;;5015172;28;20045;-67
2022/05/04 09:13:01;;;;;;;6.75;2.80;;;25.40;57.70;;;;;;5034998;28;20052;-68
2022/05/04 09:15:37;;;;;;;5.63;2.45;;;24.50;58.20;;;;;;5028707;28;20045;-67
2022/05/04 09:18:04;;;;;;;8.65;3.22;;;24.80;58.30;;;;;;5026753;28;20029;-68
2022/05/04 09:20:47;;;;;;;6.00;2.50;;;25.00;57.20;;;;;;5027810;28;20033;-68
2022/05/04 09:23:33;;;;;;;6.88;2.60;;;23.90;59.60;;;;;;5028513;28;20632;-67
2022/05/04 09:26:02;;;;;;;4.65;2.40;;;24.10;59.80;;;;;;5014083;28;20055;-68
2022/05/04 09:28:29;;;;;;;8.85;4.57;;;23.40;59.80;;;;;;5034652;28;20021;-67
2022/05/04 09:31:09;;;;;;;9.45;3.83;;;23.30;60.70;;;;;;5018841;28;20038;-68
2022/05/04 09:33:37;;;;;;;4.85;2.58;;;23.00;61.00;;;;;;5020470;28;20025;-67
2022/05/04 09:36:03;;;;;;;5.18;2.67;;;22.60;62.00;;;;;;5054633;28;20087;-68
2022/05/04 09:46:50;;;;;;;4.50;2.28;;;21.90;61.60;;;;;;5045447;28;20498;-67
2022/05/04 09:49:17;;;;;;;6.30;2.90;;;20.60;64.30;;;;;;5038310;28;20037;-68
2022/05/04 09:51:50;;;;;;;5.68;2.88;;;19.90;66.10;;;;;;5036105;28;20103;-68
2022/05/04 09:54:18;;;;;;;4.97;2.75;;;18.80;68.90;;;;;;5017920;28;20021;-67
2022/05/04 09:56:46;;;;;;;5.53;2.40;;;18.30;69.30;;;;;;5052974;28;20029;-67
2022/05/04 09:59:14;;;;;;;6.40;2.90;;;18.00;69.80;;;;;;5037716;28;20059;-67
2022/05/04 10:01:41;;;;;;;6.72;3.47;;;17.70;72.10;;;;;;5043561;28;20018;-67
2022/05/04 10:04:07;;;;;;;8.55;3.45;;;17.60;73.30;;;;;;5052572;28;20025;-68
2022/05/04 10:06:33;;;;;;;5.15;3.30;;;17.50;74.30;;;;;;5054015;28;20035;-68
2022/05/04 10:09:00;;;;;;;5.35;3.20;;;17.40;74.20;;;;;;5051525;28;20061;-67
2022/05/04 10:11:26;;;;;;;8.50;3.60;;;17.30;74.20;;;;;;5064204;28;20402;-67
2022/05/04 10:13:54;;;;;;;5.95;3.10;;;17.40;74.50;;;;;;5053164;28;20033;-67
2022/05/04 10:16:21;;;;;;;5.28;3.33;;;17.50;74.70;;;;;;5048293;28;20034;-66
2022/05/04 10:18:50;;;;;;;6.65;3.45;;;17.70;73.80;;;;;;5054414;28;20405;-67
2022/05/04 10:21:19;;;;;;;6.90;3.50;;;17.80;73.10;;;;;;5058438;28;20032;-67
2022/05/04 10:23:57;;;;;;;6.45;3.60;;;18.10;72.90;;;;;;5057678;28;20319;-68
2022/05/04 10:26:37;;;;;;;6.15;3.70;;;18.30;73.30;;;;;;5056147;28;20195;-69
2022/05/04 10:32:09;;;;;;;5.32;2.75;;;18.90;71.10;;;;;;5037226;28;20040;-68
2022/05/04 10:34:41;;;;;;;7.50;3.00;;;19.00;70.30;;;;;;5053735;28;21038;-69
2022/05/04 10:37:07;;;;;;;7.00;4.13;;;19.10;69.80;;;;;;5055506;28;20057;-68
2022/05/04 10:39:33;;;;;;;6.15;3.83;;;19.20;70.90;;;;;;5056983;28;20441;-68
2022/05/04 10:42:00;;;;;;;5.57;3.42;;;19.20;70.50;;;;;;5038228;28;20319;-69
2022/05/04 10:44:52;;;;;;;8.23;4.13;;;19.10;71.30;;;;;;5050428;28;20111;-68
2022/05/04 10:47:19;;;;;;;8.05;3.75;;;18.90;73.40;;;;;;5030914;28;20036;-68
2022/05/04 10:49:44;;;;;;;7.43;3.60;;;18.40;73.20;;;;;;5056186;28;20317;-68
2022/05/04 10:52:10;;;;;;;7.80;4.15;;;18.20;73.50;;;;;;5056090;28;20037;-68
2022/05/04 10:54:47;;;;;;;6.07;3.58;;;18.00;73.70;;;;;;5055523;28;20025;-67
2022/05/04 10:57:14;;;;;;;5.72;3.65;;;17.80;73.70;;;;;;5029971;28;20047;-67
2022/05/04 10:59:40;;;;;;;8.63;3.40;;;17.80;72.80;;;;;;5054682;28;20641;-67
2022/05/04 11:02:11;;;;;;;5.82;2.97;;;17.80;72.70;;;;;;5052013;28;20083;-68
2022/05/04 11:04:39;;;;;;;4.95;3.00;;;18.10;73.30;;;;;;5056145;28;20041;-67
2022/05/04 11:07:06;;;;;;;7.05;3.58;;;18.50;72.40;;;;;;5053516;28;20302;-67
2022/05/04 11:09:43;;;;;;;4.75;2.88;;;18.90;71.20;;;;;;5052284;28;20025;-68
2022/05/04 11:12:11;;;;;;;5.05;2.90;;;19.70;69.20;;;;;;5053182;28;20364;-68
2022/05/04 11:14:42;;;;;;;5.82;3.20;;;20.80;67.80;;;;;;5050005;28;20100;-67
2022/05/04 11:17:12;;;;;;;7.70;3.40;;;21.20;65.70;;;;;;5050449;28;20029;-67
2022/05/04 11:19:43;;;;;;;5.78;3.20;;;20.60;66.80;;;;;;5047830;28;20084;-68
2022/05/04 11:22:09;;;;;;;7.03;3.60;;;20.20;66.70;;;;;;5055188;28;20041;-68
2022/05/04 11:24:35;;;;;;;7.40;3.15;;;19.80;69.50;;;;;;5052191;28;20291;-68
2022/05/04 11:27:01;;;;;;;6.47;3.10;;;19.60;70.40;;;;;;5070737;28;20100;-68
2022/05/04 11:29:28;;;;;;;7.80;3.35;;;19.50;69.00;;;;;;5066190;28;20028;-68
2022/05/04 11:31:56;;;;;;;7.95;3.83;;;19.00;70.70;;;;;;5055902;28;20071;-67
2022/05/04 11:34:27;;;;;;;6.63;3.10;;;18.60;71.70;;;;;;5054623;28;20086;-68
2022/05/04 11:36:56;;;;;;;6.63;3.53;;;18.30;72.10;;;;;;5054519;28;20043;-68
2022/05/04 11:39:28;;;;;;;7.40;3.25;;;17.80;73.90;;;;;;5053876;28;20035;-68
2022/05/04 11:41:56;;;;;;;6.22;3.15;;;17.70;74.40;;;;;;5053545;28;20028;-67
2022/05/04 11:44:23;;;;;;;5.00;3.03;;;17.40;74.80;;;;;;5060966;28;20406;-68
2022/05/04 11:46:50;;;;;;;5.32;3.10;;;17.20;75.20;;;;;;5053867;28;20043;-67
2022/05/04 11:49:18;;;;;;;5.65;3.33;;;16.90;76.40;;;;;;5052300;28;20029;-67
2022/05/04 11:51:43;;;;;;;7.03;3.50;;;16.00;78.90;;;;;;5048374;28;20039;-67
2022/05/04 11:54:09;;;;;;;8.70;4.13;;;15.00;83.20;;;;;;5053453;28;20029;-67
2022/05/04 11:56:35;;;;;;;12.25;5.43;;;14.50;85.80;;;;;;5052636;28;20036;-69
2022/05/04 11:59:02;;;;;;;16.40;6.28;;;14.00;89.90;;;;;;5056848;28;20429;-69
2022/05/04 12:01:29;;;;;;;17.10;6.90;;;13.00;93.40;;;;;;5051844;28;20032;-69
2022/05/04 12:03:55;;;;;;;18.42;9.07;;;12.30;95.00;;;;;;5056101;28;20036;-71
2022/05/04 12:06:21;;;;;;;11.10;7.10;;;11.80;95.40;;;;;;5055937;28;20025;-71
2022/05/04 12:08:48;;;;;;;17.38;7.15;;;11.50;95.60;;;;;;5056737;28;20021;-72
2022/05/04 12:11:16;;;;;;;20.67;7.20;;;11.20;95.20;;;;;;5053283;28;20075;-73
2022/05/04 12:13:42;;;;;;;14.82;7.82;;;11.00;94.50;;;;;;5056603;28;20019;-71
2022/05/04 12:16:13;;;;;;;11.85;8.25;;;10.80;94.90;;;;;;5054135;28;20040;-71
2022/05/04 12:18:39;;;;;;;15.45;8.38;;;10.80;94.40;;;;;;5056280;28;20036;-71
2022/05/04 12:21:11;;;;;;;15.68;9.38;;;10.80;92.80;;;;;;5052171;28;20056;-70
2022/05/04 12:23:42;;;;;;;16.63;9.43;;;10.70;92.10;;;;;;5038438;28;20025;-69
2022/05/04 12:26:13;;;;;;;19.67;10.05;;;10.70;91.00;;;;;;5055675;28;20099;-70
2022/05/04 12:28:40;;;;;;;12.75;8.88;;;10.70;90.10;;;;;;5054823;28;20025;-69
2022/05/04 12:33:54;;;;;;;19.63;10.63;;;10.80;89.10;;;;;;5056424;28;20031;-69
2022/05/04 12:36:23;;;;;;;19.88;11.68;;;10.90;88.00;;;;;;5036243;28;20037;-68
2022/05/04 12:38:50;;;;;;;18.33;11.27;;;11.00;87.70;;;;;;5046833;28;20017;-69
2022/05/04 12:41:20;;;;;;;15.85;9.68;;;11.10;87.40;;;;;;5054101;28;20033;-69
2022/05/04 12:43:50;;;;;;;15.15;9.10;;;11.10;87.40;;;;;;5045982;28;20085;-68
2022/05/04 12:46:17;;;;;;;14.60;8.02;;;11.10;87.20;;;;;;5052436;28;20086;-68
2022/05/04 12:48:48;;;;;;;12.68;8.10;;;11.20;86.80;;;;;;5055792;28;20097;-68
2022/05/04 12:51:18;;;;;;;12.98;6.57;;;11.30;87.40;;;;;;5054894;28;20114;-69
2022/05/04 12:53:48;;;;;;;14.77;7.45;;;11.20;89.30;;;;;;5055620;28;20024;-68
2022/05/04 12:59:01;;;;;;;11.05;7.07;;;11.20;88.80;;;;;;5035951;28;20092;-68
2022/05/04 13:01:30;;;;;;;9.32;6.82;;;11.20;90.60;;;;;;5037809;28;20310;-68
2022/05/04 13:03:56;;;;;;;12.30;8.30;;;11.20;90.10;;;;;;5038236;28;20112;-70
2022/05/04 13:06:23;;;;;;;12.00;7.55;;;11.30;89.90;;;;;;5036937;28;20032;-68
2022/05/04 13:08:49;;;;;;;9.57;7.47;;;11.30;89.70;;;;;;5055969;28;20052;-68
2022/05/04 13:11:15;;;;;;;12.98;8.23;;;11.30;89.50;;;;;;5053220;28;20016;-68
2022/05/04 13:13:41;;;;;;;13.07;8.60;;;11.30;89.50;;;;;;5030293;28;20032;-68
2022/05/04 13:16:07;;;;;;;9.45;7.40;;;11.40;89.20;;;;;;5052883;28;20025;-68
2022/05/04 13:18:32;;;;;;;12.18;7.40;;;11.50;89.30;;;;;;5055752;28;20413;-69
2022/05/04 13:20:58;;;;;;;10.68;7.13;;;11.60;89.70;;;;;;5054165;28;20020;-69
2022/05/04 13:23:24;;;;;;;11.15;7.53;;;11.70;90.00;;;;;;5054586;28;20057;-69
2022/05/04 13:25:49;;;;;;;10.70;7.10;;;11.90;90.80;;;;;;5054691;28;20048;-69